createdAt,value
2023-03-01T00:00:47.891Z,66.85
2023-03-01T00:03:23.967Z,66.73
2023-03-01T00:05:52.326Z,66.61
2023-03-01T00:08:20.707Z,66.56
2023-03-01T00:11:11.716Z,66.54
2023-03-01T00:13:42.144Z,66.20
2023-03-01T00:16:14.451Z,66.09
2023-03-01T00:18:42.881Z,66.06
2023-03-01T00:21:11.864Z,65.96
2023-03-01T00:23:40.676Z,65.78
2023-03-01T00:26:12.019Z,65.88
2023-03-01T00:28:41.727Z,65.68
2023-03-01T00:31:14.499Z,65.33
2023-03-01T00:33:44.433Z,65.45
2023-03-01T00:36:16.598Z,65.44
2023-03-01T00:38:47.355Z,65.77
2023-03-01T00:41:17.649Z,65.67
2023-03-01T00:43:46.567Z,65.44
2023-03-01T00:46:18.559Z,65.51
2023-03-01T00:48:47.616Z,65.55
2023-03-01T00:51:22.361Z,65.64
2023-03-01T00:53:55.772Z,65.42
2023-03-01T00:56:24.921Z,65.62
2023-03-01T00:58:53.929Z,65.67
2023-03-01T01:01:24.747Z,65.87
2023-03-01T01:04:07.874Z,65.39
2023-03-01T01:06:45.471Z,65.29
2023-03-01T01:09:18.628Z,65.29
2023-03-01T01:11:52.224Z,66.07
2023-03-01T01:14:21.064Z,66.57
2023-03-01T01:16:50.663Z,66.76
2023-03-01T01:19:19.344Z,66.83
2023-03-01T01:21:49.270Z,66.75
2023-03-01T01:24:18.564Z,66.91
2023-03-01T01:26:47.350Z,67.04
2023-03-01T01:29:16.045Z,67.02
2023-03-01T01:31:45.065Z,66.60
2023-03-01T01:34:22.450Z,66.50
2023-03-01T01:36:55.103Z,66.56
2023-03-01T01:39:23.787Z,67.02
2023-03-01T01:41:51.949Z,67.06
2023-03-01T01:44:21.862Z,66.97
2023-03-01T01:47:25.880Z,67.18
2023-03-01T01:49:57.252Z,67.32
2023-03-01T01:52:32.196Z,67.24
2023-03-01T01:55:06.591Z,67.34
2023-03-01T01:57:37.826Z,67.09
2023-03-01T02:00:11.335Z,67.23
2023-03-01T02:02:44.785Z,67.14
2023-03-01T02:05:27.243Z,67.20
2023-03-01T02:07:57.258Z,67.18
2023-03-01T02:10:26.566Z,67.06
2023-03-01T02:12:55.754Z,67.59
2023-03-01T02:15:25.318Z,67.94
2023-03-01T02:17:55.495Z,67.85
2023-03-01T02:20:29.593Z,67.58
2023-03-01T02:22:59.611Z,67.38
2023-03-01T02:26:04.542Z,67.14
2023-03-01T02:28:36.396Z,66.48
2023-03-01T02:31:26.150Z,66.75
2023-03-01T02:33:56.075Z,66.78
2023-03-01T02:36:32.312Z,67.07
2023-03-01T02:39:03.418Z,67.12
2023-03-01T02:41:36.911Z,67.60
2023-03-01T02:44:06.659Z,67.70
2023-03-01T02:46:35.304Z,67.71
2023-03-01T02:49:18.853Z,67.59
2023-03-01T02:52:03.816Z,67.37
2023-03-01T02:54:32.198Z,67.16
2023-03-01T02:57:02.571Z,67.10
2023-03-01T02:59:40.340Z,67.07
2023-03-01T03:02:39.301Z,66.98
2023-03-01T03:05:18.777Z,67.57
2023-03-01T03:07:49.572Z,67.52
2023-03-01T03:10:22.679Z,67.54
2023-03-01T03:12:56.623Z,67.60
2023-03-01T03:15:25.893Z,67.66
2023-03-01T03:17:54.981Z,67.25
2023-03-01T03:20:26.944Z,66.98
2023-03-01T03:22:59.388Z,66.76
2023-03-01T03:25:29.852Z,66.94
2023-03-01T03:27:59.264Z,66.86
2023-03-01T03:30:32.546Z,66.99
2023-03-01T03:33:01.233Z,66.90
2023-03-01T03:35:32.387Z,66.67
2023-03-01T03:38:04.952Z,66.71
2023-03-01T03:40:41.720Z,66.83
2023-03-01T03:43:21.787Z,66.99
2023-03-01T03:45:51.874Z,67.24
2023-03-01T03:48:20.891Z,67.16
2023-03-01T03:50:51.717Z,67.07
2023-03-01T03:53:21.133Z,66.72
2023-03-01T03:55:52.771Z,66.83
2023-03-01T03:58:23.025Z,66.99
2023-03-01T04:00:54.642Z,67.20
2023-03-01T04:03:24.472Z,67.33
2023-03-01T04:05:53.916Z,67.29
2023-03-01T04:08:23.786Z,68.07
2023-03-01T04:10:54.996Z,68.29
2023-03-01T04:13:26.382Z,68.48
2023-03-01T04:15:56.093Z,69.48
2023-03-01T04:18:26.437Z,69.62
2023-03-01T04:20:56.633Z,69.46
2023-03-01T04:23:25.103Z,69.24
2023-03-01T04:25:56.259Z,69.51
2023-03-01T04:28:35.501Z,69.77
2023-03-01T04:31:16.759Z,69.58
2023-03-01T04:33:46.418Z,69.42
2023-03-01T04:36:16.668Z,69.21
2023-03-01T04:38:48.881Z,69.33
2023-03-01T04:41:20.309Z,69.41
2023-03-01T04:43:49.662Z,69.45
2023-03-01T04:46:21.956Z,69.49
2023-03-01T04:48:52.216Z,69.39
2023-03-01T04:51:20.588Z,69.04
2023-03-01T04:53:49.096Z,68.93
2023-03-01T04:56:19.915Z,68.91
2023-03-01T04:58:48.428Z,68.76
2023-03-01T05:01:22.094Z,68.91
2023-03-01T05:03:52.975Z,69.03
2023-03-01T05:06:21.609Z,69.18
2023-03-01T05:08:52.336Z,69.01
2023-03-01T05:11:21.042Z,68.68
2023-03-01T05:13:51.171Z,68.57
2023-03-01T05:16:21.278Z,68.41
2023-03-01T05:18:52.423Z,68.47
2023-03-01T05:21:20.814Z,68.42
2023-03-01T05:23:49.392Z,68.27
2023-03-01T05:26:28.359Z,68.21
2023-03-01T05:29:07.644Z,68.00
2023-03-01T05:31:35.931Z,67.71
2023-03-01T05:34:04.342Z,67.47
2023-03-01T05:36:32.887Z,67.32
2023-03-01T05:39:01.887Z,67.43
2023-03-01T05:41:30.567Z,67.24
2023-03-01T05:43:59.047Z,67.00
2023-03-01T05:46:27.186Z,67.09
2023-03-01T05:48:56.523Z,67.56
2023-03-01T05:51:25.133Z,67.40
2023-03-01T05:53:53.595Z,67.15
2023-03-01T05:56:23.498Z,67.58
2023-03-01T05:58:52.404Z,67.60
2023-03-01T06:01:22.633Z,67.86
2023-03-01T06:03:50.998Z,67.77
2023-03-01T06:06:20.258Z,67.90
2023-03-01T06:08:49.193Z,68.05
2023-03-01T06:11:20.448Z,68.09
2023-03-01T06:13:48.812Z,68.15
2023-03-01T06:16:17.559Z,68.17
2023-03-01T06:18:46.214Z,68.57
2023-03-01T06:21:14.839Z,68.72
2023-03-01T06:23:43.146Z,68.50
2023-03-01T06:26:11.430Z,68.20
2023-03-01T06:28:39.721Z,68.12
2023-03-01T06:31:10.783Z,68.38
2023-03-01T06:33:39.236Z,68.60
2023-03-01T06:36:08.869Z,68.72
2023-03-01T06:38:37.322Z,68.55
2023-03-01T06:41:05.795Z,68.87
2023-03-01T06:43:35.411Z,69.08
2023-03-01T06:46:07.096Z,69.30
2023-03-01T06:48:36.112Z,69.24
2023-03-01T06:51:04.844Z,69.04
2023-03-01T06:53:33.182Z,68.95
2023-03-01T06:56:01.622Z,68.89
2023-03-01T06:58:30.202Z,68.86
2023-03-01T07:00:58.481Z,68.93
2023-03-01T07:03:26.881Z,68.98
2023-03-01T07:05:55.354Z,69.17
2023-03-01T07:08:23.926Z,69.19
2023-03-01T07:11:03.524Z,69.06
2023-03-01T07:13:31.762Z,69.24
2023-03-01T07:16:00.154Z,69.38
2023-03-01T07:18:28.705Z,69.35
2023-03-01T07:20:57.011Z,69.42
2023-03-01T07:23:25.567Z,69.55
2023-03-01T07:25:55.187Z,69.58
2023-03-01T07:28:26.525Z,69.38
2023-03-01T07:30:55.114Z,69.44
2023-03-01T07:33:23.659Z,69.25
2023-03-01T07:36:04.577Z,69.13
2023-03-01T07:38:33.544Z,68.70
2023-03-01T07:41:04.386Z,68.41
2023-03-01T07:43:33.593Z,68.06
2023-03-01T07:46:04.200Z,67.39
2023-03-01T07:48:34.225Z,67.02
2023-03-01T07:51:04.665Z,66.73
2023-03-01T07:53:35.280Z,66.24
2023-03-01T07:56:09.842Z,65.96
2023-03-01T07:58:39.996Z,66.03
2023-03-01T08:01:11.442Z,66.27
2023-03-01T08:03:41.035Z,66.48
2023-03-01T08:06:12.637Z,66.61
2023-03-01T08:08:41.672Z,66.42
2023-03-01T08:11:13.121Z,66.41
2023-03-01T08:13:41.793Z,66.37
2023-03-01T08:16:15.744Z,66.25
2023-03-01T08:18:44.986Z,66.11
2023-03-01T08:21:16.951Z,65.85
2023-03-01T08:23:46.463Z,65.91
2023-03-01T08:26:19.848Z,65.85
2023-03-01T08:28:50.182Z,65.62
2023-03-01T08:31:25.799Z,65.29
2023-03-01T08:33:57.996Z,64.56
2023-03-01T08:36:32.920Z,64.12
2023-03-01T08:39:02.225Z,64.32
2023-03-01T08:41:30.898Z,63.77
2023-03-01T08:44:02.355Z,63.62
2023-03-01T08:46:37.289Z,63.33
2023-03-01T08:49:08.119Z,63.07
2023-03-01T08:51:40.116Z,62.85
2023-03-01T08:54:13.753Z,62.44
2023-03-01T08:56:42.994Z,61.85
2023-03-01T08:59:16.455Z,61.22
2023-03-01T09:01:45.186Z,60.83
2023-03-01T09:04:14.278Z,60.15
2023-03-01T09:06:43.370Z,59.49
2023-03-01T09:09:17.054Z,59.51
2023-03-01T09:11:47.534Z,59.41
2023-03-01T09:14:16.245Z,59.09
2023-03-01T09:16:44.861Z,59.33
2023-03-01T09:19:14.470Z,58.65
2023-03-01T09:21:54.226Z,58.43
2023-03-01T09:24:24.966Z,59.36
2023-03-01T09:26:57.643Z,59.36
2023-03-01T09:29:27.249Z,58.60
2023-03-01T09:31:56.574Z,56.81
2023-03-01T09:34:25.166Z,56.18
2023-03-01T09:36:53.577Z,55.98
2023-03-01T09:39:21.998Z,55.78
2023-03-01T09:41:55.598Z,55.75
2023-03-01T09:44:32.982Z,55.02
2023-03-01T09:47:03.248Z,54.86
2023-03-01T09:49:35.294Z,54.85
2023-03-01T09:52:27.915Z,55.13
2023-03-01T09:54:59.485Z,55.38
2023-03-01T09:57:31.667Z,55.29
2023-03-01T10:00:22.452Z,55.34
2023-03-01T10:03:00.968Z,55.53
2023-03-01T10:05:38.467Z,55.08
2023-03-01T10:08:09.909Z,54.84
2023-03-01T10:10:41.052Z,54.70
2023-03-01T10:13:23.148Z,55.00
2023-03-01T10:15:58.765Z,54.47
2023-03-01T10:18:29.925Z,54.58
2023-03-01T10:21:04.163Z,54.19
2023-03-01T10:23:33.573Z,54.01
2023-03-01T10:26:11.321Z,53.74
2023-03-01T10:28:41.175Z,53.63
2023-03-01T10:31:22.404Z,53.57
2023-03-01T10:33:56.674Z,53.37
2023-03-01T10:36:26.384Z,53.59
2023-03-01T10:38:59.304Z,53.33
2023-03-01T10:41:28.722Z,52.46
2023-03-01T10:44:00.686Z,52.25
2023-03-01T10:46:34.402Z,52.31
2023-03-01T10:49:19.600Z,51.68
2023-03-01T10:51:52.325Z,51.59
2023-03-01T10:54:26.712Z,51.07
2023-03-01T10:56:57.940Z,50.23
2023-03-01T10:59:40.059Z,49.82
2023-03-01T11:02:29.484Z,49.76
2023-03-01T11:05:16.758Z,49.95
2023-03-01T11:07:54.537Z,49.29
2023-03-01T11:10:29.207Z,49.50
2023-03-01T11:13:08.917Z,49.38
2023-03-01T11:18:33.923Z,48.96
2023-03-01T11:21:10.016Z,48.83
2023-03-01T11:23:40.853Z,48.68
2023-03-01T11:26:12.377Z,49.02
2023-03-01T11:28:44.044Z,48.81
2023-03-01T11:31:14.532Z,48.50
2023-03-01T11:33:49.641Z,48.48
2023-03-01T11:36:37.323Z,48.35
2023-03-01T11:39:27.635Z,48.16
2023-03-01T11:42:19.384Z,48.21
2023-03-01T11:44:53.686Z,47.73
2023-03-01T11:47:41.032Z,47.80
2023-03-01T11:50:09.567Z,47.28
2023-03-01T11:52:49.830Z,47.40
2023-03-01T11:55:33.164Z,47.69
2023-03-01T11:58:24.700Z,47.84
2023-03-01T12:01:17.733Z,48.27
2023-03-01T12:04:13.679Z,47.94
2023-03-01T12:06:47.781Z,48.11
2023-03-01T12:09:28.863Z,48.27
2023-03-01T12:12:40.109Z,48.04
2023-03-01T12:15:29.298Z,48.18
2023-03-01T12:18:22.574Z,48.42
2023-03-01T12:21:00.982Z,48.87
2023-03-01T12:23:56.096Z,48.47
2023-03-01T12:26:41.698Z,48.58
2023-03-01T12:29:35.336Z,48.75
2023-03-01T12:32:20.266Z,48.62
2023-03-01T12:35:03.734Z,48.46
2023-03-01T12:38:17.286Z,47.85
2023-03-01T12:41:07.692Z,47.38
2023-03-01T12:44:28.289Z,46.79
2023-03-01T12:47:18.388Z,46.98
2023-03-01T12:49:55.656Z,46.70
2023-03-01T12:52:30.803Z,46.33
2023-03-01T12:55:02.251Z,46.70
2023-03-01T12:57:48.099Z,46.26
2023-03-01T13:00:25.543Z,45.19
2023-03-01T13:03:13.260Z,45.15
2023-03-01T13:06:20.162Z,45.00
2023-03-01T13:11:35.926Z,44.50
2023-03-01T13:14:24.138Z,44.22
2023-03-01T13:16:54.469Z,44.31
2023-03-01T13:19:30.284Z,44.59
2023-03-01T13:21:58.739Z,43.78
2023-03-01T13:24:36.530Z,43.57
2023-03-01T13:27:08.122Z,43.23
2023-03-01T13:29:53.259Z,43.37
2023-03-01T13:32:43.030Z,43.70
2023-03-01T13:35:16.146Z,43.75
2023-03-01T13:37:45.530Z,43.47
2023-03-01T13:40:20.385Z,43.28
2023-03-01T13:43:04.150Z,42.52
2023-03-01T13:45:42.127Z,42.25
2023-03-01T13:48:16.536Z,42.42
2023-03-01T13:50:50.540Z,41.74
2023-03-01T13:53:21.488Z,42.20
2023-03-01T13:55:58.728Z,42.03
2023-03-01T13:58:34.245Z,41.31
2023-03-01T14:01:09.760Z,41.67
2023-03-01T14:03:43.336Z,41.36
2023-03-01T14:06:30.170Z,41.29
2023-03-01T14:09:16.584Z,41.22
2023-03-01T14:12:15.889Z,40.15
2023-03-01T14:14:50.704Z,38.89
2023-03-01T14:17:43.767Z,38.82
2023-03-01T14:20:25.878Z,38.82
2023-03-01T14:22:58.389Z,38.97
2023-03-01T14:25:33.893Z,38.96
2023-03-01T14:28:17.826Z,38.35
2023-03-01T14:30:51.790Z,38.13
2023-03-01T14:33:30.553Z,37.96
2023-03-01T14:36:06.453Z,37.71
2023-03-01T14:38:46.573Z,37.55
2023-03-01T14:41:20.286Z,37.55
2023-03-01T14:44:08.139Z,37.87
2023-03-01T14:46:39.721Z,37.62
2023-03-01T14:49:12.555Z,37.75
2023-03-01T14:51:44.325Z,38.06
2023-03-01T14:54:28.255Z,37.94
2023-03-01T14:57:01.034Z,38.29
2023-03-01T14:59:29.924Z,38.12
2023-03-01T15:02:00.850Z,38.45
2023-03-01T15:04:31.024Z,39.20
2023-03-01T15:07:06.349Z,38.98
2023-03-01T15:09:38.324Z,38.68
2023-03-01T15:12:28.499Z,38.62
2023-03-01T15:15:04.822Z,38.70
2023-03-01T15:17:39.694Z,38.42
2023-03-01T15:20:18.357Z,38.18
2023-03-01T15:22:50.005Z,38.21
2023-03-01T15:25:21.290Z,38.46
2023-03-01T15:27:52.293Z,38.57
2023-03-01T15:30:26.240Z,38.65
2023-03-01T15:33:28.099Z,38.53
2023-03-01T15:35:59.270Z,38.44
2023-03-01T15:38:33.216Z,38.55
2023-03-01T15:41:05.568Z,38.24
2023-03-01T15:43:46.110Z,38.75
2023-03-01T15:46:30.662Z,39.77
2023-03-01T15:49:06.177Z,40.60
2023-03-01T15:51:37.674Z,40.98
2023-03-01T15:54:19.931Z,41.23
2023-03-01T15:56:48.748Z,40.95
2023-03-01T15:59:18.048Z,40.74
2023-03-01T16:01:47.154Z,41.46
2023-03-01T16:04:22.050Z,42.75
2023-03-01T16:06:58.346Z,42.37
2023-03-01T16:09:28.042Z,42.08
2023-03-01T16:11:57.050Z,41.51
2023-03-01T16:14:25.944Z,40.99
2023-03-01T16:16:55.567Z,40.87
2023-03-01T16:19:25.082Z,40.82
2023-03-01T16:21:54.272Z,40.98
2023-03-01T16:24:23.247Z,40.91
2023-03-01T16:26:52.031Z,40.93
2023-03-01T16:29:21.029Z,40.90
2023-03-01T16:31:50.519Z,40.94
2023-03-01T16:34:23.128Z,40.94
2023-03-01T16:36:53.026Z,40.85
2023-03-01T16:39:21.540Z,41.22
2023-03-01T16:41:50.391Z,42.57
2023-03-01T16:44:19.705Z,42.33
2023-03-01T16:46:48.706Z,41.88
2023-03-01T16:49:17.377Z,41.86
2023-03-01T16:51:46.775Z,42.27
2023-03-01T16:54:16.083Z,42.74
2023-03-01T16:56:45.292Z,42.89
2023-03-01T16:59:14.462Z,43.12
2023-03-01T17:01:43.182Z,43.36
2023-03-01T17:04:13.686Z,43.45
2023-03-01T17:06:42.807Z,43.89
2023-03-01T17:09:13.054Z,43.97
2023-03-01T17:11:41.575Z,44.18
2023-03-01T17:14:10.784Z,44.56
2023-03-01T17:16:39.615Z,44.72
2023-03-01T17:19:08.673Z,44.95
2023-03-01T17:21:38.081Z,45.03
2023-03-01T17:24:07.392Z,45.09
2023-03-01T17:26:37.603Z,45.34
2023-03-01T17:29:07.103Z,45.41
2023-03-01T17:31:35.956Z,45.54
2023-03-01T17:34:04.368Z,45.72
2023-03-01T17:36:34.889Z,45.74
2023-03-01T17:39:03.576Z,45.82
2023-03-01T17:41:32.693Z,45.94
2023-03-01T17:44:01.993Z,46.00
2023-03-01T17:46:30.986Z,46.21
2023-03-01T17:49:00.251Z,46.39
2023-03-01T17:51:29.719Z,46.73
2023-03-01T17:53:59.598Z,47.15
2023-03-01T17:56:28.800Z,47.44
2023-03-01T17:58:57.887Z,47.49
2023-03-01T18:01:28.156Z,47.52
2023-03-01T18:03:57.818Z,47.53
2023-03-01T18:06:29.389Z,47.36
2023-03-01T18:08:58.596Z,47.25
2023-03-01T18:11:27.977Z,47.26
2023-03-01T18:13:56.864Z,47.32
2023-03-01T18:16:26.547Z,47.37
2023-03-01T18:18:58.661Z,47.46
2023-03-01T18:21:28.945Z,47.64
2023-03-01T18:23:59.890Z,47.83
2023-03-01T18:26:30.133Z,47.83
2023-03-01T18:29:01.534Z,48.47
2023-03-01T18:31:33.950Z,48.55
2023-03-01T18:34:04.145Z,48.72
2023-03-01T18:36:35.825Z,48.93
2023-03-01T18:39:07.374Z,49.39
2023-03-01T18:41:37.602Z,49.65
2023-03-01T18:44:08.595Z,49.70
2023-03-01T18:46:40.393Z,50.04
2023-03-01T18:49:11.528Z,50.38
2023-03-01T18:51:41.744Z,50.68
2023-03-01T18:54:13.165Z,50.98
2023-03-01T18:56:42.855Z,51.42
2023-03-01T18:59:13.000Z,52.51
2023-03-01T19:01:43.086Z,52.90
2023-03-01T19:04:14.152Z,53.01
2023-03-01T19:06:43.710Z,52.99
2023-03-01T19:09:14.728Z,52.73
2023-03-01T19:11:45.187Z,52.66
2023-03-01T19:14:19.744Z,52.49
2023-03-01T19:16:49.661Z,52.59
2023-03-01T19:19:19.668Z,52.99
2023-03-01T19:21:59.406Z,53.42
2023-03-01T19:24:35.961Z,53.33
2023-03-01T19:27:06.506Z,53.51
2023-03-01T19:29:36.527Z,53.44
2023-03-01T19:32:06.763Z,53.65
2023-03-01T19:34:37.816Z,53.72
2023-03-01T19:37:10.235Z,53.94
2023-03-01T19:39:39.534Z,53.81
2023-03-01T19:42:10.913Z,53.65
2023-03-01T19:44:42.530Z,53.83
2023-03-01T19:47:14.070Z,54.03
2023-03-01T19:49:46.506Z,54.13
2023-03-01T19:52:15.700Z,54.20
2023-03-01T19:54:44.829Z,54.35
2023-03-01T19:57:15.642Z,54.50
2023-03-01T19:59:45.269Z,54.87
2023-03-01T20:02:14.483Z,55.30
2023-03-01T20:04:45.836Z,55.68
2023-03-01T20:07:15.238Z,55.73
2023-03-01T20:09:46.431Z,55.81
2023-03-01T20:12:15.538Z,56.22
2023-03-01T20:14:44.930Z,56.42
2023-03-01T20:17:16.163Z,56.72
2023-03-01T20:19:45.955Z,56.84
2023-03-01T20:22:17.636Z,57.11
2023-03-01T20:24:46.529Z,57.47
2023-03-01T20:27:15.348Z,57.59
2023-03-01T20:29:46.341Z,57.90
2023-03-01T20:32:15.313Z,57.87
2023-03-01T20:34:44.144Z,58.00
2023-03-01T20:37:13.857Z,57.94
2023-03-01T20:39:42.765Z,57.64
2023-03-01T20:42:12.483Z,57.57
2023-03-01T20:44:44.746Z,57.75
2023-03-01T20:47:14.490Z,58.02
2023-03-01T20:49:43.779Z,58.07
2023-03-01T20:52:13.108Z,58.03
2023-03-01T20:54:42.272Z,57.54
2023-03-01T20:57:12.167Z,57.84
2023-03-01T20:59:41.576Z,58.09
2023-03-01T21:02:11.766Z,58.36
2023-03-01T21:04:40.524Z,58.47
2023-03-01T21:07:09.797Z,58.47
2023-03-01T21:09:39.912Z,58.49
2023-03-01T21:12:10.541Z,58.45
2023-03-01T21:14:42.800Z,58.66
2023-03-01T21:17:14.281Z,59.17
2023-03-01T21:19:44.459Z,59.64
2023-03-01T21:22:14.730Z,60.03
2023-03-01T21:24:43.381Z,60.65
2023-03-01T21:27:12.373Z,60.65
2023-03-01T21:29:43.856Z,60.72
2023-03-01T21:32:14.478Z,60.82
2023-03-01T21:34:46.030Z,60.81
2023-03-01T21:37:14.675Z,60.92
2023-03-01T21:39:43.595Z,60.98
2023-03-01T21:42:13.105Z,62.39
2023-03-01T21:44:42.559Z,63.00
2023-03-01T21:47:11.531Z,63.17
2023-03-01T21:49:40.227Z,63.51
2023-03-01T21:52:09.584Z,63.51
2023-03-01T21:54:38.978Z,63.46
2023-03-01T21:57:07.694Z,63.23
2023-03-01T21:59:36.867Z,63.34
2023-03-01T22:02:05.343Z,63.37
2023-03-01T22:04:33.618Z,63.22
2023-03-01T22:07:02.213Z,63.16
2023-03-01T22:09:32.319Z,63.14
2023-03-01T22:12:03.720Z,63.09
2023-03-01T22:14:32.874Z,62.92
2023-03-01T22:17:01.338Z,62.89
2023-03-01T22:19:31.474Z,62.92
2023-03-01T22:21:59.854Z,63.13
2023-03-01T22:24:29.059Z,62.89
2023-03-01T22:26:57.414Z,62.93
2023-03-01T22:29:29.226Z,62.85
2023-03-01T22:31:58.390Z,63.22
2023-03-01T22:34:27.297Z,63.73
2023-03-01T22:36:56.627Z,63.44
2023-03-01T22:39:25.373Z,63.38
2023-03-01T22:41:54.365Z,63.47
2023-03-01T22:44:23.996Z,63.43
2023-03-01T22:46:53.485Z,63.50
2023-03-01T22:49:22.328Z,63.59
2023-03-01T22:51:51.664Z,63.74
2023-03-01T22:54:20.990Z,63.77
2023-03-01T22:56:49.754Z,63.78
2023-03-01T22:59:23.195Z,64.21
2023-03-01T23:01:53.129Z,64.26
2023-03-01T23:04:22.983Z,64.54
2023-03-01T23:06:52.012Z,64.49
2023-03-01T23:09:22.593Z,64.65
2023-03-01T23:11:51.719Z,64.65
2023-03-01T23:14:21.773Z,64.53
2023-03-01T23:16:51.241Z,64.92
2023-03-01T23:19:19.607Z,64.75
2023-03-01T23:21:50.632Z,64.73
2023-03-01T23:24:21.626Z,64.88
2023-03-01T23:26:53.648Z,64.88
2023-03-01T23:29:22.680Z,64.57
2023-03-01T23:31:51.434Z,64.29
2023-03-01T23:34:20.008Z,64.12
2023-03-01T23:36:48.281Z,64.30
2023-03-01T23:39:16.562Z,64.35
2023-03-01T23:41:45.348Z,64.61
2023-03-01T23:44:21.138Z,64.42
2023-03-01T23:46:50.400Z,64.39
2023-03-01T23:49:21.946Z,64.17
2023-03-01T23:51:50.550Z,64.52
2023-03-01T23:54:21.723Z,64.83
2023-03-01T23:56:50.170Z,64.91
2023-03-01T23:59:22.090Z,65.03
